Time;durP1;ratioP1;P1;durP2;ratioP2;P2;SDS_P1;SDS_P2;PMS_P1;PMS_P2;Temp;Humidity;BMP_temperature;BMP_pressure;BME280_temperature;BME280_humidity;BME280_pressure;Samples;Min_cycle;Max_cycle;Signal;HPM_P1;HPM_P2
2023/09/19 00:01:34;;;;;;;12.55;2.15;;;;;;;;;;5050164;28;20491;-71
2023/09/19 00:04:00;;;;;;;4.53;1.70;;;;;;;;;;5051638;28;20032;-72
2023/09/19 00:06:31;;;;;;;8.18;2.17;;;;;;;;;;5052079;28;20025;-72
2023/09/19 00:08:58;;;;;;;6.85;1.90;;;;;;;;;;5052241;28;20108;-71
2023/09/19 00:11:26;;;;;;;8.93;1.85;;;;;;;;;;5051979;28;20028;-72
2023/09/19 00:13:52;;;;;;;5.68;1.92;;;;;;;;;;5052074;28;20238;-73
2023/09/19 00:16:18;;;;;;;11.57;2.20;;;;;;;;;;5053280;28;20078;-72
2023/09/19 00:18:44;;;;;;;10.65;2.17;;;;;;;;;;5051415;28;20025;-71
2023/09/19 00:21:11;;;;;;;8.35;2.15;;;;;;;;;;5053303;28;20021;-72
2023/09/19 00:23:37;;;;;;;6.78;2.63;;;;;;;;;;5052010;28;20075;-72
2023/09/19 00:26:03;;;;;;;11.02;2.78;;;;;;;;;;5051676;28;20029;-72
2023/09/19 00:28:29;;;;;;;11.25;2.53;;;;;;;;;;5053070;28;20036;-72
2023/09/19 00:30:56;;;;;;;10.30;2.22;;;;;;;;;;5061246;28;20029;-73
2023/09/19 00:33:22;;;;;;;10.88;2.25;;;;;;;;;;5052913;28;20060;-72
2023/09/19 00:35:52;;;;;;;9.45;2.33;;;;;;;;;;5051811;28;20021;-73
2023/09/19 00:38:26;;;;;;;8.48;2.58;;;;;;;;;;5051744;28;20032;-71
2023/09/19 00:40:53;;;;;;;7.20;2.35;;;;;;;;;;5051708;28;20021;-71
2023/09/19 00:43:19;;;;;;;8.30;2.30;;;;;;;;;;5051395;28;20065;-72
2023/09/19 00:45:45;;;;;;;13.05;2.70;;;;;;;;;;5051436;28;20064;-70
2023/09/19 00:48:12;;;;;;;11.18;2.72;;;;;;;;;;5051646;28;20036;-72
2023/09/19 00:50:41;;;;;;;8.88;2.63;;;;;;;;;;5051942;28;20472;-73
2023/09/19 00:53:08;;;;;;;7.40;2.60;;;;;;;;;;5054643;28;20021;-73
2023/09/19 00:55:34;;;;;;;9.95;3.03;;;;;;;;;;5059027;28;20025;-71
2023/09/19 00:58:01;;;;;;;10.90;2.83;;;;;;;;;;5056362;28;20025;-71
2023/09/19 01:00:27;;;;;;;6.28;2.90;;;;;;;;;;5054434;28;20072;-73
2023/09/19 01:02:53;;;;;;;7.25;2.63;;;;;;;;;;5053792;28;20389;-73
2023/09/19 01:05:19;;;;;;;10.15;2.53;;;;;;;;;;5053803;28;20073;-74
2023/09/19 01:07:45;;;;;;;9.63;2.70;;;;;;;;;;5054321;28;20033;-73
2023/09/19 01:10:14;;;;;;;12.10;2.88;;;;;;;;;;5060289;28;20096;-72
2023/09/19 01:12:40;;;;;;;16.50;2.85;;;;;;;;;;5058223;28;20558;-72
2023/09/19 01:15:26;;;;;;;9.57;2.90;;;;;;;;;;5055849;28;20032;-72
2023/09/19 01:18:00;;;;;;;12.32;3.10;;;;;;;;;;5041607;28;20036;-73
2023/09/19 01:20:31;;;;;;;7.72;2.88;;;;;;;;;;5051380;28;20033;-71
2023/09/19 01:23:04;;;;;;;14.85;3.75;;;;;;;;;;5051712;28;20021;-71
2023/09/19 01:25:51;;;;;;;15.77;3.17;;;;;;;;;;5052038;28;20025;-72
2023/09/19 01:28:23;;;;;;;13.90;3.78;;;;;;;;;;5051990;28;20021;-72
2023/09/19 01:30:54;;;;;;;12.48;3.13;;;;;;;;;;5052656;28;20044;-72
2023/09/19 01:33:20;;;;;;;13.43;3.13;;;;;;;;;;5051366;28;20033;-71
2023/09/19 01:35:47;;;;;;;12.65;3.08;;;;;;;;;;5051158;28;20100;-72
2023/09/19 01:38:14;;;;;;;8.38;3.38;;;;;;;;;;5051132;28;20025;-72
2023/09/19 01:40:47;;;;;;;10.38;3.25;;;;;;;;;;5051111;28;20021;-74
2023/09/19 01:43:18;;;;;;;10.23;2.92;;;;;;;;;;5050831;28;20028;-71
2023/09/19 01:45:56;;;;;;;10.77;3.03;;;;;;;;;;5050911;28;20052;-72
2023/09/19 01:48:22;;;;;;;9.73;2.85;;;;;;;;;;5051090;28;20072;-72
2023/09/19 01:50:54;;;;;;;10.77;2.92;;;;;;;;;;5051052;28;20130;-72
2023/09/19 01:53:30;;;;;;;10.52;3.17;;;;;;;;;;5051471;28;20035;-72
2023/09/19 01:55:57;;;;;;;10.20;2.67;;;;;;;;;;5053790;28;20028;-71
2023/09/19 01:58:42;;;;;;;8.25;2.80;;;;;;;;;;5054730;28;20099;-72
2023/09/19 02:01:13;;;;;;;9.05;2.80;;;;;;;;;;5054639;28;20029;-72
2023/09/19 02:03:39;;;;;;;13.25;2.80;;;;;;;;;;5054587;28;20025;-72
2023/09/19 02:06:11;;;;;;;5.90;2.60;;;;;;;;;;5054382;28;20021;-70
2023/09/19 02:08:37;;;;;;;9.88;2.40;;;;;;;;;;5054554;28;20107;-72
2023/09/19 02:11:03;;;;;;;7.85;2.65;;;;;;;;;;5054246;28;20036;-73
2023/09/19 02:13:31;;;;;;;10.20;2.72;;;;;;;;;;5054787;28;20025;-72
2023/09/19 02:15:57;;;;;;;12.00;2.60;;;;;;;;;;5055481;28;20044;-72
2023/09/19 02:18:23;;;;;;;14.68;2.38;;;;;;;;;;5055199;28;20025;-72
2023/09/19 02:20:51;;;;;;;9.05;2.55;;;;;;;;;;5055692;28;20025;-72
2023/09/19 02:23:17;;;;;;;9.57;2.72;;;;;;;;;;5054854;28;20115;-71
2023/09/19 02:25:43;;;;;;;18.00;2.75;;;;;;;;;;5054008;28;20081;-71
2023/09/19 02:28:09;;;;;;;12.07;2.72;;;;;;;;;;5055032;28;20417;-71
2023/09/19 02:30:36;;;;;;;10.98;2.80;;;;;;;;;;5055544;28;20132;-71
2023/09/19 02:33:03;;;;;;;11.32;3.65;;;;;;;;;;5053337;28;20055;-72
2023/09/19 02:35:35;;;;;;;12.57;3.25;;;;;;;;;;5054163;28;20072;-72
2023/09/19 02:38:02;;;;;;;9.27;2.92;;;;;;;;;;5054602;28;20041;-72
2023/09/19 02:40:28;;;;;;;9.63;3.47;;;;;;;;;;5054056;28;20024;-71
2023/09/19 02:42:55;;;;;;;11.82;3.55;;;;;;;;;;5053683;28;20033;-71
2023/09/19 02:45:23;;;;;;;15.98;3.80;;;;;;;;;;5053503;28;20025;-71
2023/09/19 02:47:49;;;;;;;13.30;4.40;;;;;;;;;;5053741;28;20017;-71
2023/09/19 02:50:16;;;;;;;21.25;8.77;;;;;;;;;;5053724;28;20021;-72
2023/09/19 02:52:48;;;;;;;9.38;2.83;;;;;;;;;;5053449;28;20108;-71
2023/09/19 02:55:17;;;;;;;10.52;3.08;;;;;;;;;;5053291;28;20013;-72
2023/09/19 02:57:47;;;;;;;14.10;3.40;;;;;;;;;;5053552;28;20041;-72
2023/09/19 03:00:13;;;;;;;13.10;3.65;;;;;;;;;;5053093;28;20107;-72
2023/09/19 03:02:41;;;;;;;10.85;3.13;;;;;;;;;;5053202;28;20464;-72
2023/09/19 03:05:07;;;;;;;15.40;3.40;;;;;;;;;;5052112;28;20506;-73
2023/09/19 03:07:34;;;;;;;17.67;3.42;;;;;;;;;;5054815;28;20044;-73
2023/09/19 03:10:00;;;;;;;14.98;2.85;;;;;;;;;;5056794;28;20145;-73
2023/09/19 03:12:26;;;;;;;15.30;3.97;;;;;;;;;;5054608;28;20025;-72
2023/09/19 03:14:52;;;;;;;10.63;2.75;;;;;;;;;;5052927;28;20029;-72
2023/09/19 03:17:20;;;;;;;7.78;2.80;;;;;;;;;;5054036;28;20029;-76
2023/09/19 03:19:47;;;;;;;11.23;2.90;;;;;;;;;;5055907;28;20027;-71
2023/09/19 03:22:22;;;;;;;15.57;3.10;;;;;;;;;;5056161;28;20114;-72
2023/09/19 03:24:48;;;;;;;14.35;2.88;;;;;;;;;;5055259;28;20033;-72
2023/09/19 03:27:15;;;;;;;9.15;2.72;;;;;;;;;;5052972;28;20029;-72
2023/09/19 03:29:41;;;;;;;11.75;2.65;;;;;;;;;;5051861;28;20104;-72
2023/09/19 03:32:10;;;;;;;14.88;3.25;;;;;;;;;;5052243;28;20039;-71
2023/09/19 03:34:38;;;;;;;13.18;2.90;;;;;;;;;;5053646;28;20075;-74
2023/09/19 03:37:04;;;;;;;15.75;3.03;;;;;;;;;;5057749;28;20104;-73
2023/09/19 03:39:30;;;;;;;18.08;2.78;;;;;;;;;;5055896;28;20028;-72
2023/09/19 03:41:56;;;;;;;17.17;2.92;;;;;;;;;;5055884;28;20097;-72
2023/09/19 03:44:22;;;;;;;14.40;3.00;;;;;;;;;;5061374;28;20052;-71
2023/09/19 03:46:48;;;;;;;18.25;3.00;;;;;;;;;;5064161;28;20029;-71
2023/09/19 03:49:14;;;;;;;9.98;2.53;;;;;;;;;;5057639;28;20502;-72
2023/09/19 03:51:41;;;;;;;12.82;3.00;;;;;;;;;;5058052;28;20091;-72
2023/09/19 03:54:07;;;;;;;11.90;3.33;;;;;;;;;;5055169;28;20056;-71
2023/09/19 03:56:33;;;;;;;12.40;2.80;;;;;;;;;;5051672;28;20021;-74
2023/09/19 03:58:59;;;;;;;12.43;2.97;;;;;;;;;;5051186;28;20028;-71
2023/09/19 04:01:27;;;;;;;11.95;2.70;;;;;;;;;;5056140;28;20021;-73
2023/09/19 04:03:53;;;;;;;14.35;3.00;;;;;;;;;;5053095;28;20107;-71
2023/09/19 04:06:20;;;;;;;13.80;2.80;;;;;;;;;;5052171;28;20063;-70
2023/09/19 04:08:47;;;;;;;19.10;3.67;;;;;;;;;;5051174;28;20118;-72
2023/09/19 04:11:13;;;;;;;15.68;3.15;;;;;;;;;;5051887;28;20505;-71
2023/09/19 04:13:39;;;;;;;11.50;2.58;;;;;;;;;;5050955;28;20032;-71
2023/09/19 04:16:06;;;;;;;17.20;3.67;;;;;;;;;;5050777;28;20017;-71
2023/09/19 04:18:37;;;;;;;16.95;2.95;;;;;;;;;;5051033;28;20032;-72
2023/09/19 04:21:04;;;;;;;16.55;3.72;;;;;;;;;;5051267;28;20063;-73
2023/09/19 04:23:30;;;;;;;9.07;2.92;;;;;;;;;;5050692;28;20036;-71
2023/09/19 04:25:57;;;;;;;12.75;3.00;;;;;;;;;;5051787;28;20032;-72
2023/09/19 04:28:24;;;;;;;15.27;2.95;;;;;;;;;;5051920;28;20021;-73
2023/09/19 04:30:50;;;;;;;11.60;3.00;;;;;;;;;;5049562;28;20056;-72
2023/09/19 04:33:16;;;;;;;14.68;3.03;;;;;;;;;;5049665;28;20492;-73
2023/09/19 04:35:45;;;;;;;14.07;2.55;;;;;;;;;;5049689;28;20056;-73
2023/09/19 04:38:11;;;;;;;13.48;2.92;;;;;;;;;;5049908;28;20092;-72
2023/09/19 04:40:39;;;;;;;18.95;3.63;;;;;;;;;;5049921;28;20016;-72
2023/09/19 04:43:05;;;;;;;11.18;2.65;;;;;;;;;;5049622;28;20249;-72
2023/09/19 04:45:32;;;;;;;16.70;3.22;;;;;;;;;;5049539;28;20103;-72
2023/09/19 04:47:58;;;;;;;15.90;2.95;;;;;;;;;;5049487;28;20027;-74
2023/09/19 04:50:27;;;;;;;21.17;3.22;;;;;;;;;;5049682;28;20085;-72
2023/09/19 04:52:54;;;;;;;18.92;2.70;;;;;;;;;;5047760;28;20028;-73
2023/09/19 04:55:20;;;;;;;21.13;4.00;;;;;;;;;;5045340;28;20028;-70
2023/09/19 04:57:55;;;;;;;19.08;3.28;;;;;;;;;;5050319;28;20021;-71
2023/09/19 05:00:27;;;;;;;19.02;4.05;;;;;;;;;;5040716;28;20333;-73
2023/09/19 05:02:56;;;;;;;17.05;3.17;;;;;;;;;;5050036;28;20032;-72
2023/09/19 05:05:23;;;;;;;21.58;4.72;;;;;;;;;;5051371;28;20688;-72
2023/09/19 05:07:49;;;;;;;11.07;2.83;;;;;;;;;;5050267;28;20036;-71
2023/09/19 05:10:18;;;;;;;11.88;2.85;;;;;;;;;;5032559;28;20615;-72
2023/09/19 05:12:47;;;;;;;17.25;2.78;;;;;;;;;;5049706;28;20455;-71
2023/09/19 05:15:17;;;;;;;18.42;3.63;;;;;;;;;;5047914;28;20044;-72
2023/09/19 05:17:43;;;;;;;23.58;3.53;;;;;;;;;;5054943;28;20403;-76
2023/09/19 05:20:24;;;;;;;11.93;2.67;;;;;;;;;;5054996;28;20025;-76
2023/09/19 05:22:51;;;;;;;17.83;2.58;;;;;;;;;;5054128;28;20350;-72
2023/09/19 05:25:18;;;;;;;14.13;3.38;;;;;;;;;;5049675;28;20033;-73
2023/09/19 05:27:44;;;;;;;17.27;2.70;;;;;;;;;;5052233;28;20017;-72
2023/09/19 05:30:10;;;;;;;18.40;4.00;;;;;;;;;;5052496;28;20029;-71
2023/09/19 05:32:36;;;;;;;13.88;3.10;;;;;;;;;;5013701;28;1109327;-71
2023/09/19 05:35:03;;;;;;;14.60;3.03;;;;;;;;;;5054491;28;20610;-72
2023/09/19 05:37:29;;;;;;;14.52;2.65;;;;;;;;;;5054580;28;20028;-73
2023/09/19 05:39:55;;;;;;;13.80;2.90;;;;;;;;;;5054456;28;20045;-73
2023/09/19 05:42:21;;;;;;;13.00;4.07;;;;;;;;;;5053851;28;20051;-73
2023/09/19 05:44:47;;;;;;;18.25;3.53;;;;;;;;;;5054447;28;20072;-74
2023/09/19 05:47:13;;;;;;;19.38;3.00;;;;;;;;;;5054903;28;20033;-72
2023/09/19 05:49:39;;;;;;;16.42;2.88;;;;;;;;;;5054512;28;20029;-71
2023/09/19 05:52:08;;;;;;;17.13;3.28;;;;;;;;;;5053703;28;20410;-71
2023/09/19 05:54:34;;;;;;;20.52;2.90;;;;;;;;;;5055472;28;20036;-72
2023/09/19 05:57:01;;;;;;;20.40;3.13;;;;;;;;;;5055388;28;20025;-72
2023/09/19 05:59:27;;;;;;;27.45;3.35;;;;;;;;;;5055350;28;20086;-71
2023/09/19 06:01:53;;;;;;;18.85;3.80;;;;;;;;;;5054177;28;20077;-72
2023/09/19 06:04:19;;;;;;;16.58;2.75;;;;;;;;;;5053798;28;20391;-71
2023/09/19 06:06:47;;;;;;;16.73;3.50;;;;;;;;;;5054379;28;20025;-76
2023/09/19 06:09:13;;;;;;;23.83;2.83;;;;;;;;;;5055993;28;20419;-71
2023/09/19 06:11:39;;;;;;;19.92;2.70;;;;;;;;;;5056226;28;20100;-72
2023/09/19 06:14:06;;;;;;;15.00;2.58;;;;;;;;;;5055863;28;20033;-72
2023/09/19 06:16:32;;;;;;;18.02;4.65;;;;;;;;;;5055424;28;20147;-71
2023/09/19 06:19:02;;;;;;;20.25;3.38;;;;;;;;;;5055144;28;20021;-71
2023/09/19 06:21:28;;;;;;;11.88;3.40;;;;;;;;;;5053771;28;20021;-71
2023/09/19 06:23:54;;;;;;;16.40;3.20;;;;;;;;;;5054030;28;20025;-71
2023/09/19 06:26:20;;;;;;;21.55;3.47;;;;;;;;;;5054040;28;20036;-71
2023/09/19 06:28:47;;;;;;;24.17;3.53;;;;;;;;;;5053424;28;20135;-70
2023/09/19 06:31:13;;;;;;;12.70;2.58;;;;;;;;;;5053630;28;20033;-70
2023/09/19 06:33:39;;;;;;;23.05;3.50;;;;;;;;;;5054612;28;20517;-71
2023/09/19 06:36:08;;;;;;;20.10;3.55;;;;;;;;;;5053820;28;20078;-72
2023/09/19 06:38:36;;;;;;;18.35;3.25;;;;;;;;;;5054984;28;20392;-72
2023/09/19 06:41:04;;;;;;;14.45;3.00;;;;;;;;;;5052920;28;20152;-73
2023/09/19 06:43:30;;;;;;;21.65;3.00;;;;;;;;;;5053364;28;20100;-72
2023/09/19 06:45:57;;;;;;;23.65;5.43;;;;;;;;;;5053346;28;20048;-71
2023/09/19 06:48:26;;;;;;;23.00;3.67;;;;;;;;;;5053424;28;20404;-71
2023/09/19 06:50:56;;;;;;;22.08;3.00;;;;;;;;;;5053361;28;20053;-71
2023/09/19 06:53:23;;;;;;;24.65;3.72;;;;;;;;;;5052913;28;20083;-71
2023/09/19 06:55:49;;;;;;;18.23;3.13;;;;;;;;;;5053116;28;20554;-71
2023/09/19 06:58:16;;;;;;;17.55;3.55;;;;;;;;;;5053507;28;20086;-72
2023/09/19 07:00:42;;;;;;;24.70;4.03;;;;;;;;;;5053169;28;20017;-72
2023/09/19 07:03:11;;;;;;;13.77;2.80;;;;;;;;;;5057291;28;20092;-71
2023/09/19 07:05:38;;;;;;;21.02;4.25;;;;;;;;;;5059666;28;20032;-72
2023/09/19 07:08:05;;;;;;;21.05;3.75;;;;;;;;;;5055554;28;20029;-72
2023/09/19 07:10:32;;;;;;;18.17;3.22;;;;;;;;;;5053622;28;20017;-72
2023/09/19 07:13:02;;;;;;;16.00;3.38;;;;;;;;;;5054962;28;20028;-75
2023/09/19 07:15:30;;;;;;;15.95;3.50;;;;;;;;;;5055840;28;20094;-74
2023/09/19 07:17:56;;;;;;;21.38;3.88;;;;;;;;;;5058726;28;20104;-73
2023/09/19 07:20:26;;;;;;;20.25;4.00;;;;;;;;;;5062186;28;20028;-74
2023/09/19 07:22:54;;;;;;;17.60;3.22;;;;;;;;;;5061441;28;20093;-73
2023/09/19 07:25:20;;;;;;;15.95;3.78;;;;;;;;;;5059787;28;20357;-73
2023/09/19 07:27:46;;;;;;;26.60;3.70;;;;;;;;;;5059321;28;20306;-74
2023/09/19 07:30:12;;;;;;;17.42;3.47;;;;;;;;;;5056338;28;20391;-73
2023/09/19 07:32:40;;;;;;;15.88;3.75;;;;;;;;;;5052507;28;20540;-71
2023/09/19 07:35:06;;;;;;;22.42;3.70;;;;;;;;;;5052696;28;20035;-73
2023/09/19 07:37:36;;;;;;;17.60;3.33;;;;;;;;;;5052919;28;20025;-71
2023/09/19 07:40:09;;;;;;;18.73;3.72;;;;;;;;;;5052634;28;20028;-72
2023/09/19 07:42:36;;;;;;;20.50;3.60;;;;;;;;;;5052636;28;20419;-72
2023/09/19 07:45:03;;;;;;;20.92;3.80;;;;;;;;;;5053995;28;20403;-73
2023/09/19 07:47:30;;;;;;;21.80;3.90;;;;;;;;;;5053303;28;20388;-74
2023/09/19 07:49:56;;;;;;;15.90;3.38;;;;;;;;;;5052862;28;20121;-73
2023/09/19 07:52:22;;;;;;;22.17;3.97;;;;;;;;;;5056005;28;20017;-71
2023/09/19 07:54:49;;;;;;;20.73;3.65;;;;;;;;;;5055407;28;20021;-73
2023/09/19 07:57:15;;;;;;;21.17;3.20;;;;;;;;;;5052891;28;20021;-72
2023/09/19 07:59:42;;;;;;;18.77;3.63;;;;;;;;;;5052399;28;20044;-72
2023/09/19 08:02:09;;;;;;;15.05;3.13;;;;;;;;;;5051825;28;20025;-71
2023/09/19 08:04:35;;;;;;;20.98;3.45;;;;;;;;;;5052118;28;20162;-71
2023/09/19 08:07:03;;;;;;;16.75;3.15;;;;;;;;;;5052398;28;20096;-71
2023/09/19 08:09:33;;;;;;;18.65;3.20;;;;;;;;;;5052359;28;20112;-72
2023/09/19 08:12:02;;;;;;;16.75;3.47;;;;;;;;;;5051965;28;20428;-70
2023/09/19 08:14:29;;;;;;;13.32;2.97;;;;;;;;;;5051693;28;20029;-73
2023/09/19 08:16:58;;;;;;;18.23;3.47;;;;;;;;;;5052146;28;20021;-73
2023/09/19 08:19:28;;;;;;;11.85;3.58;;;;;;;;;;5052149;28;20039;-74
2023/09/19 08:22:00;;;;;;;14.68;3.45;;;;;;;;;;5051793;28;20013;-72
2023/09/19 08:24:28;;;;;;;16.85;3.50;;;;;;;;;;5051968;28;20387;-72
2023/09/19 08:26:54;;;;;;;16.80;3.20;;;;;;;;;;5051948;28;20025;-72
2023/09/19 08:29:20;;;;;;;20.42;3.38;;;;;;;;;;5052217;28;20379;-71
2023/09/19 08:31:49;;;;;;;19.27;3.38;;;;;;;;;;5052062;28;20037;-71
2023/09/19 08:34:15;;;;;;;21.52;3.90;;;;;;;;;;5052625;28;20512;-72
2023/09/19 08:36:44;;;;;;;17.67;3.85;;;;;;;;;;5051981;28;20024;-74
2023/09/19 08:39:11;;;;;;;23.02;4.03;;;;;;;;;;5051938;28;20040;-75
2023/09/19 08:41:37;;;;;;;28.48;4.68;;;;;;;;;;5050499;28;20021;-71
2023/09/19 08:44:03;;;;;;;20.98;3.85;;;;;;;;;;5051492;28;20052;-71
2023/09/19 08:46:31;;;;;;;20.58;3.58;;;;;;;;;;5051447;28;20071;-71
2023/09/19 08:49:05;;;;;;;22.48;3.97;;;;;;;;;;5051538;28;20433;-70
2023/09/19 08:51:34;;;;;;;26.87;4.17;;;;;;;;;;5050800;28;20044;-73
2023/09/19 08:54:06;;;;;;;18.58;3.50;;;;;;;;;;5051018;28;20112;-70
2023/09/19 08:56:33;;;;;;;25.08;4.32;;;;;;;;;;5051080;28;20039;-72
2023/09/19 08:59:03;;;;;;;24.52;4.20;;;;;;;;;;5051987;28;20396;-71
2023/09/19 09:01:32;;;;;;;18.52;3.60;;;;;;;;;;5051521;28;20021;-70
2023/09/19 09:03:58;;;;;;;22.00;3.70;;;;;;;;;;5050614;28;20029;-73
2023/09/19 09:06:24;;;;;;;22.70;3.78;;;;;;;;;;5051261;28;20025;-71
2023/09/19 09:08:54;;;;;;;21.00;3.88;;;;;;;;;;5050181;28;20731;-74
2023/09/19 09:11:20;;;;;;;19.13;3.67;;;;;;;;;;5053909;28;20148;-74
2023/09/19 09:13:46;;;;;;;24.33;4.20;;;;;;;;;;5053458;28;20025;-78
2023/09/19 09:16:13;;;;;;;20.55;3.95;;;;;;;;;;5051376;28;20053;-73
2023/09/19 09:18:39;;;;;;;20.40;3.40;;;;;;;;;;5051140;28;20028;-72
2023/09/19 09:21:05;;;;;;;32.45;5.00;;;;;;;;;;5050083;28;20047;-75
2023/09/19 09:23:32;;;;;;;29.50;4.15;;;;;;;;;;5051422;28;20029;-73
2023/09/19 09:26:02;;;;;;;23.60;4.00;;;;;;;;;;5051132;28;20108;-71
2023/09/19 09:28:30;;;;;;;20.80;3.80;;;;;;;;;;5051346;28;20025;-71
2023/09/19 09:30:58;;;;;;;25.00;5.55;;;;;;;;;;5051411;28;20040;-73
2023/09/19 09:33:24;;;;;;;24.98;4.13;;;;;;;;;;5050809;28;20508;-72
2023/09/19 09:36:00;;;;;;;23.10;4.00;;;;;;;;;;5051012;28;20100;-72
2023/09/19 09:38:27;;;;;;;23.52;4.47;;;;;;;;;;5048466;28;20028;-75
2023/09/19 09:41:00;;;;;;;27.63;4.07;;;;;;;;;;5051179;28;20060;-76
2023/09/19 09:43:28;;;;;;;16.27;3.60;;;;;;;;;;5051121;28;20025;-74
2023/09/19 09:49:14;;;;;;;21.38;4.18;;;;;;;;;;5050719;28;20033;-71
2023/09/19 09:51:39;;;;;;;17.55;3.15;;;;;;;;;;5050545;28;20116;-71
2023/09/19 09:54:15;;;;;;;16.77;3.42;;;;;;;;;;5050532;28;20029;-72
2023/09/19 09:56:54;;;;;;;17.30;3.85;;;;;;;;;;5051003;28;20017;-71
2023/09/19 09:59:23;;;;;;;20.02;3.60;;;;;;;;;;5050926;28;20415;-72
2023/09/19 10:01:50;;;;;;;21.02;3.65;;;;;;;;;;5050940;28;20020;-73
2023/09/19 10:04:44;;;;;;;18.30;3.25;;;;;;;;;;5050803;28;20411;-73
2023/09/19 10:07:11;;;;;;;20.63;3.67;;;;;;;;;;5050966;28;20425;-72
2023/09/19 10:09:50;;;;;;;22.27;3.40;;;;;;;;;;5051029;28;20080;-72
2023/09/19 10:12:17;;;;;;;20.08;3.78;;;;;;;;;;5050956;28;20077;-76
2023/09/19 10:14:46;;;;;;;16.50;3.40;;;;;;;;;;5051188;28;20387;-73
2023/09/19 10:17:15;;;;;;;19.90;3.55;;;;;;;;;;5054297;28;20070;-74
2023/09/19 10:19:57;;;;;;;21.83;4.10;;;;;;;;;;5054322;28;20464;-73
2023/09/19 10:22:24;;;;;;;16.73;4.18;;;;;;;;;;5054241;28;20435;-73
2023/09/19 10:24:53;;;;;;;13.90;3.72;;;;;;;;;;5054183;28;20067;-73
2023/09/19 10:27:21;;;;;;;18.65;3.33;;;;;;;;;;5054435;28;20025;-73
2023/09/19 10:29:56;;;;;;;20.73;3.25;;;;;;;;;;5052912;28;20021;-72
2023/09/19 10:32:23;;;;;;;19.55;3.30;;;;;;;;;;5053852;28;20037;-73
2023/09/19 10:34:49;;;;;;;16.98;3.83;;;;;;;;;;5053761;28;20021;-72
2023/09/19 10:37:18;;;;;;;21.73;3.47;;;;;;;;;;5054106;28;20032;-72
2023/09/19 10:39:49;;;;;;;19.60;3.60;;;;;;;;;;5053946;28;20499;-73
2023/09/19 10:42:18;;;;;;;17.23;3.38;;;;;;;;;;5053540;28;20021;-73
2023/09/19 10:44:46;;;;;;;13.68;3.20;;;;;;;;;;5053815;28;20078;-72
2023/09/19 10:47:13;;;;;;;13.52;3.67;;;;;;;;;;5054234;28;20047;-72
2023/09/19 10:49:48;;;;;;;18.85;3.60;;;;;;;;;;5053928;28;20048;-72
2023/09/19 10:52:19;;;;;;;14.77;2.92;;;;;;;;;;5053611;28;20113;-73
2023/09/19 10:54:48;;;;;;;15.00;4.05;;;;;;;;;;5054220;28;20035;-72
2023/09/19 10:57:19;;;;;;;11.95;3.03;;;;;;;;;;5053806;28;20017;-72
2023/09/19 11:00:02;;;;;;;16.33;3.03;;;;;;;;;;5055190;28;20025;-72
2023/09/19 11:02:28;;;;;;;17.23;3.70;;;;;;;;;;5053353;28;20024;-72
2023/09/19 11:04:56;;;;;;;17.55;3.30;;;;;;;;;;5051996;28;20037;-71
2023/09/19 11:07:25;;;;;;;13.43;3.30;;;;;;;;;;5053478;28;20029;-71
2023/09/19 11:09:57;;;;;;;18.58;3.08;;;;;;;;;;5052992;28;20025;-72
2023/09/19 11:12:42;;;;;;;17.13;3.22;;;;;;;;;;5053719;28;20029;-73
2023/09/19 11:15:11;;;;;;;20.77;3.78;;;;;;;;;;5053073;28;20104;-72
2023/09/19 11:17:41;;;;;;;25.40;3.65;;;;;;;;;;5053663;28;20055;-71
2023/09/19 11:22:50;;;;;;;16.48;3.38;;;;;;;;;;5053282;28;20021;-73
2023/09/19 11:28:08;;;;;;;24.45;4.00;;;;;;;;;;5052201;28;20029;-71
2023/09/19 11:30:35;;;;;;;18.33;3.40;;;;;;;;;;5052942;28;20070;-73
2023/09/19 11:33:20;;;;;;;18.90;3.20;;;;;;;;;;5053575;28;20120;-72
2023/09/19 11:36:15;;;;;;;19.20;3.97;;;;;;;;;;5053461;28;20070;-71
2023/09/19 11:38:45;;;;;;;18.05;3.47;;;;;;;;;;5052673;28;20029;-72
2023/09/19 11:41:34;;;;;;;16.38;3.15;;;;;;;;;;5054249;28;20039;-73
2023/09/19 11:44:04;;;;;;;13.13;3.17;;;;;;;;;;5047173;28;20037;-73
2023/09/19 11:46:31;;;;;;;14.18;2.97;;;;;;;;;;5053044;28;20561;-71
2023/09/19 11:49:06;;;;;;;17.85;3.20;;;;;;;;;;5052818;28;20029;-72
2023/09/19 11:51:42;;;;;;;17.75;2.97;;;;;;;;;;5051973;28;20028;-72
2023/09/19 11:54:17;;;;;;;17.42;3.55;;;;;;;;;;5052320;28;20021;-74
2023/09/19 11:56:44;;;;;;;16.92;3.25;;;;;;;;;;5051656;28;20029;-72
2023/09/19 11:59:10;;;;;;;17.23;3.58;;;;;;;;;;5052309;28;20013;-72
2023/09/19 12:01:40;;;;;;;18.42;3.47;;;;;;;;;;5052027;28;20108;-71
2023/09/19 12:04:08;;;;;;;15.98;3.50;;;;;;;;;;5051608;28;20451;-71
2023/09/19 12:06:35;;;;;;;14.55;3.55;;;;;;;;;;5052240;28;20025;-70
2023/09/19 12:09:06;;;;;;;18.25;3.38;;;;;;;;;;5052489;28;20411;-71
2023/09/19 12:11:33;;;;;;;10.57;3.00;;;;;;;;;;5054158;28;20154;-72
2023/09/19 12:14:00;;;;;;;20.02;4.10;;;;;;;;;;5053321;28;20024;-74
2023/09/19 12:16:30;;;;;;;16.00;3.15;;;;;;;;;;5050459;28;20055;-72
2023/09/19 12:18:57;;;;;;;12.75;3.40;;;;;;;;;;5030877;28;20520;-71
2023/09/19 12:21:27;;;;;;;21.25;3.80;;;;;;;;;;5030641;28;20526;-71
2023/09/19 12:24:05;;;;;;;21.90;3.90;;;;;;;;;;5050746;28;20108;-72
2023/09/19 12:26:39;;;;;;;18.52;3.88;;;;;;;;;;5051226;28;20040;-71
2023/09/19 12:29:05;;;;;;;18.90;3.80;;;;;;;;;;5030752;28;20032;-72
2023/09/19 12:31:36;;;;;;;18.92;3.83;;;;;;;;;;5030305;28;20268;-73
2023/09/19 12:34:02;;;;;;;18.85;4.78;;;;;;;;;;5030578;28;20036;-72
2023/09/19 12:36:29;;;;;;;16.27;3.88;;;;;;;;;;5029391;28;20021;-73
2023/09/19 12:38:58;;;;;;;18.20;3.47;;;;;;;;;;5049593;28;20047;-72
2023/09/19 12:41:25;;;;;;;15.55;3.95;;;;;;;;;;5050349;28;20087;-73
2023/09/19 12:43:53;;;;;;;18.10;3.55;;;;;;;;;;5051944;28;20025;-74
2023/09/19 12:46:24;;;;;;;25.20;4.60;;;;;;;;;;5051449;28;20021;-72
2023/09/19 12:49:13;;;;;;;13.75;3.30;;;;;;;;;;5050826;28;20029;-72
2023/09/19 12:51:39;;;;;;;12.13;3.25;;;;;;;;;;5052516;28;20099;-73
2023/09/19 12:54:05;;;;;;;14.43;3.28;;;;;;;;;;5051705;28;20033;-73
2023/09/19 12:56:41;;;;;;;16.70;3.90;;;;;;;;;;5054300;28;20021;-72
2023/09/19 12:59:11;;;;;;;21.27;4.03;;;;;;;;;;5054166;28;20468;-72
2023/09/19 13:01:43;;;;;;;18.33;4.00;;;;;;;;;;5057096;28;20024;-72
2023/09/19 13:04:33;;;;;;;18.13;4.32;;;;;;;;;;5055287;28;20060;-72
2023/09/19 13:07:00;;;;;;;18.38;3.58;;;;;;;;;;5055610;28;20025;-73
2023/09/19 13:09:45;;;;;;;19.85;4.50;;;;;;;;;;5052147;28;20032;-73
2023/09/19 13:12:31;;;;;;;16.90;3.15;;;;;;;;;;5053648;28;20093;-72
2023/09/19 13:15:16;;;;;;;15.32;3.45;;;;;;;;;;5053626;28;20081;-71
2023/09/19 13:17:45;;;;;;;19.73;3.63;;;;;;;;;;5055382;28;20112;-71
2023/09/19 13:20:32;;;;;;;16.10;3.75;;;;;;;;;;5056055;28;20092;-73
2023/09/19 13:22:59;;;;;;;13.95;3.75;;;;;;;;;;5056054;28;20464;-76
2023/09/19 13:25:28;;;;;;;18.25;4.05;;;;;;;;;;5052049;28;20037;-70
2023/09/19 13:27:55;;;;;;;15.75;3.85;;;;;;;;;;5050333;28;20024;-72
2023/09/19 13:30:22;;;;;;;12.23;3.20;;;;;;;;;;5050116;28;20100;-75
2023/09/19 13:32:48;;;;;;;13.98;3.70;;;;;;;;;;5049610;28;20036;-72
2023/09/19 13:35:15;;;;;;;15.07;3.95;;;;;;;;;;5047745;28;20114;-72
2023/09/19 13:37:42;;;;;;;18.50;3.92;;;;;;;;;;5049554;28;20071;-72
2023/09/19 13:40:11;;;;;;;13.25;3.35;;;;;;;;;;5050074;28;20013;-72
2023/09/19 13:42:38;;;;;;;15.60;3.42;;;;;;;;;;5048680;28;20021;-74
2023/09/19 13:45:04;;;;;;;17.55;3.88;;;;;;;;;;5049846;28;20119;-72
2023/09/19 13:47:33;;;;;;;11.63;3.30;;;;;;;;;;5049660;28;20112;-72
2023/09/19 13:50:00;;;;;;;16.40;3.08;;;;;;;;;;5050889;28;20074;-73
2023/09/19 13:52:28;;;;;;;16.05;3.20;;;;;;;;;;5053314;28;20025;-71
2023/09/19 13:54:56;;;;;;;14.40;4.18;;;;;;;;;;5053631;28;20660;-71
2023/09/19 13:57:22;;;;;;;13.27;3.70;;;;;;;;;;5053433;28;20484;-71
2023/09/19 13:59:49;;;;;;;17.77;3.70;;;;;;;;;;5044681;28;20017;-74
2023/09/19 14:02:18;;;;;;;18.73;3.38;;;;;;;;;;5053527;28;20051;-72
2023/09/19 14:04:44;;;;;;;17.45;3.25;;;;;;;;;;5054329;28;20025;-72
2023/09/19 14:07:10;;;;;;;23.45;3.67;;;;;;;;;;5054213;28;20392;-74
2023/09/19 14:09:37;;;;;;;16.05;3.47;;;;;;;;;;5053251;28;20356;-72
2023/09/19 14:12:03;;;;;;;18.02;3.42;;;;;;;;;;5053266;28;20075;-71
2023/09/19 14:14:29;;;;;;;17.33;3.22;;;;;;;;;;5054113;28;20398;-72
2023/09/19 14:16:55;;;;;;;14.80;3.28;;;;;;;;;;5053280;28;20031;-71
2023/09/19 14:19:21;;;;;;;9.05;3.05;;;;;;;;;;5052772;28;20067;-71
2023/09/19 14:21:47;;;;;;;13.93;3.63;;;;;;;;;;5053682;28;20117;-73
2023/09/19 14:24:19;;;;;;;10.25;2.80;;;;;;;;;;5053511;28;20072;-72
2023/09/19 14:26:46;;;;;;;16.02;3.10;;;;;;;;;;5054083;28;20108;-72
2023/09/19 14:29:13;;;;;;;17.13;3.78;;;;;;;;;;5053558;28;20024;-71
2023/09/19 14:31:39;;;;;;;15.82;3.55;;;;;;;;;;5053865;28;20040;-73
2023/09/19 14:34:06;;;;;;;14.88;3.22;;;;;;;;;;5053816;28;20063;-72
2023/09/19 14:36:33;;;;;;;15.32;3.67;;;;;;;;;;5054025;28;20021;-72
2023/09/19 14:38:59;;;;;;;15.52;3.80;;;;;;;;;;5054043;28;20409;-74
2023/09/19 14:41:25;;;;;;;16.48;3.78;;;;;;;;;;5053267;28;20021;-71
2023/09/19 14:43:52;;;;;;;15.82;3.25;;;;;;;;;;5052921;28;20021;-71
2023/09/19 14:46:19;;;;;;;15.20;3.78;;;;;;;;;;5052160;28;20029;-73
2023/09/19 14:48:47;;;;;;;16.58;3.45;;;;;;;;;;5053183;28;20021;-70